sensor_id;sensor_type;location;lat;lon;timestamp;P1;durP1;ratioP1;P2;durP2;ratioP2
47713;SDS011;33475;46.614;13.888;2024-02-15T00:00:37;13.45;;;6.93;;
47713;SDS011;33475;46.614;13.888;2024-02-15T00:03:05;12.10;;;6.45;;
47713;SDS011;33475;46.614;13.888;2024-02-15T00:05:32;7.07;;;3.95;;
47713;SDS011;33475;46.614;13.888;2024-02-15T00:08:01;7.43;;;3.13;;
47713;SDS011;33475;46.614;13.888;2024-02-15T00:10:28;6.05;;;4.18;;
47713;SDS011;33475;46.614;13.888;2024-02-15T00:12:54;6.82;;;2.95;;
47713;SDS011;33475;46.614;13.888;2024-02-15T00:15:20;10.98;;;3.92;;
47713;SDS011;33475;46.614;13.888;2024-02-15T00:17:46;9.00;;;5.22;;
47713;SDS011;33475;46.614;13.888;2024-02-15T00:20:13;10.32;;;4.28;;
47713;SDS011;33475;46.614;13.888;2024-02-15T00:22:39;8.15;;;5.97;;
47713;SDS011;33475;46.614;13.888;2024-02-15T00:25:08;5.30;;;4.10;;
47713;SDS011;33475;46.614;13.888;2024-02-15T00:27:36;7.45;;;4.85;;
47713;SDS011;33475;46.614;13.888;2024-02-15T00:30:03;6.85;;;4.57;;
47713;SDS011;33475;46.614;13.888;2024-02-15T00:32:35;5.93;;;3.92;;
47713;SDS011;33475;46.614;13.888;2024-02-15T00:35:04;5.60;;;3.58;;
47713;SDS011;33475;46.614;13.888;2024-02-15T00:37:33;6.45;;;3.45;;
47713;SDS011;33475;46.614;13.888;2024-02-15T00:39:59;10.68;;;3.53;;
47713;SDS011;33475;46.614;13.888;2024-02-15T00:42:25;8.60;;;4.07;;
47713;SDS011;33475;46.614;13.888;2024-02-15T00:44:51;9.95;;;4.60;;
47713;SDS011;33475;46.614;13.888;2024-02-15T00:47:17;6.47;;;3.80;;
47713;SDS011;33475;46.614;13.888;2024-02-15T00:49:46;8.35;;;4.05;;
47713;SDS011;33475;46.614;13.888;2024-02-15T00:52:12;15.32;;;3.95;;
47713;SDS011;33475;46.614;13.888;2024-02-15T00:54:38;5.45;;;3.72;;
47713;SDS011;33475;46.614;13.888;2024-02-15T00:57:04;11.20;;;5.18;;
47713;SDS011;33475;46.614;13.888;2024-02-15T00:59:31;6.85;;;3.67;;
47713;SDS011;33475;46.614;13.888;2024-02-15T01:02:01;11.20;;;5.38;;
47713;SDS011;33475;46.614;13.888;2024-02-15T01:04:27;7.18;;;4.15;;
47713;SDS011;33475;46.614;13.888;2024-02-15T01:06:54;4.80;;;3.13;;
47713;SDS011;33475;46.614;13.888;2024-02-15T01:09:23;6.25;;;3.40;;
47713;SDS011;33475;46.614;13.888;2024-02-15T01:11:49;5.97;;;3.50;;
47713;SDS011;33475;46.614;13.888;2024-02-15T01:14:16;6.78;;;3.78;;
47713;SDS011;33475;46.614;13.888;2024-02-15T01:16:42;7.32;;;3.47;;
47713;SDS011;33475;46.614;13.888;2024-02-15T01:19:09;6.78;;;3.70;;
47713;SDS011;33475;46.614;13.888;2024-02-15T01:21:35;6.10;;;3.95;;
47713;SDS011;33475;46.614;13.888;2024-02-15T01:24:02;9.48;;;3.38;;
47713;SDS011;33475;46.614;13.888;2024-02-15T01:26:28;8.55;;;3.35;;
47713;SDS011;33475;46.614;13.888;2024-02-15T01:28:55;4.40;;;3.17;;
47713;SDS011;33475;46.614;13.888;2024-02-15T01:31:21;6.05;;;3.50;;
47713;SDS011;33475;46.614;13.888;2024-02-15T01:33:48;8.23;;;3.92;;
47713;SDS011;33475;46.614;13.888;2024-02-15T01:36:14;7.82;;;3.80;;
47713;SDS011;33475;46.614;13.888;2024-02-15T01:38:41;15.43;;;3.97;;
47713;SDS011;33475;46.614;13.888;2024-02-15T01:41:07;11.40;;;3.45;;
47713;SDS011;33475;46.614;13.888;2024-02-15T01:43:34;5.90;;;3.55;;
47713;SDS011;33475;46.614;13.888;2024-02-15T01:46:00;5.35;;;3.75;;
47713;SDS011;33475;46.614;13.888;2024-02-15T01:48:29;4.97;;;3.33;;
47713;SDS011;33475;46.614;13.888;2024-02-15T01:50:57;3.95;;;3.05;;
47713;SDS011;33475;46.614;13.888;2024-02-15T01:53:24;5.07;;;3.15;;
47713;SDS011;33475;46.614;13.888;2024-02-15T01:55:52;11.02;;;3.10;;
47713;SDS011;33475;46.614;13.888;2024-02-15T01:58:20;8.45;;;3.33;;
47713;SDS011;33475;46.614;13.888;2024-02-15T02:00:47;14.40;;;3.67;;
47713;SDS011;33475;46.614;13.888;2024-02-15T02:03:14;10.50;;;3.80;;
47713;SDS011;33475;46.614;13.888;2024-02-15T02:05:40;7.20;;;3.60;;
47713;SDS011;33475;46.614;13.888;2024-02-15T02:08:07;12.10;;;3.33;;
47713;SDS011;33475;46.614;13.888;2024-02-15T02:10:37;8.13;;;3.90;;
47713;SDS011;33475;46.614;13.888;2024-02-15T02:13:03;8.55;;;3.22;;
47713;SDS011;33475;46.614;13.888;2024-02-15T02:15:31;4.72;;;2.90;;
47713;SDS011;33475;46.614;13.888;2024-02-15T02:17:58;4.35;;;3.33;;
47713;SDS011;33475;46.614;13.888;2024-02-15T02:20:27;3.33;;;2.42;;
47713;SDS011;33475;46.614;13.888;2024-02-15T02:22:54;10.32;;;3.58;;
47713;SDS011;33475;46.614;13.888;2024-02-15T02:25:24;5.53;;;2.60;;
47713;SDS011;33475;46.614;13.888;2024-02-15T02:27:53;6.75;;;2.70;;
47713;SDS011;33475;46.614;13.888;2024-02-15T02:30:20;5.10;;;3.30;;
47713;SDS011;33475;46.614;13.888;2024-02-15T02:32:47;6.82;;;3.67;;
47713;SDS011;33475;46.614;13.888;2024-02-15T02:35:14;3.90;;;3.00;;
47713;SDS011;33475;46.614;13.888;2024-02-15T02:37:41;9.48;;;3.13;;
47713;SDS011;33475;46.614;13.888;2024-02-15T02:40:08;6.00;;;3.20;;
47713;SDS011;33475;46.614;13.888;2024-02-15T02:42:56;7.18;;;3.13;;
47713;SDS011;33475;46.614;13.888;2024-02-15T02:45:21;4.15;;;3.13;;
47713;SDS011;33475;46.614;13.888;2024-02-15T02:47:51;12.75;;;5.25;;
47713;SDS011;33475;46.614;13.888;2024-02-15T02:50:18;7.50;;;3.45;;
47713;SDS011;33475;46.614;13.888;2024-02-15T02:52:44;5.85;;;4.22;;
47713;SDS011;33475;46.614;13.888;2024-02-15T02:55:13;5.80;;;3.85;;
47713;SDS011;33475;46.614;13.888;2024-02-15T02:57:39;21.17;;;9.35;;
47713;SDS011;33475;46.614;13.888;2024-02-15T03:00:11;22.75;;;12.30;;
47713;SDS011;33475;46.614;13.888;2024-02-15T03:02:41;14.55;;;6.63;;
47713;SDS011;33475;46.614;13.888;2024-02-15T03:05:08;8.73;;;4.00;;
47713;SDS011;33475;46.614;13.888;2024-02-15T03:07:36;8.57;;;5.07;;
47713;SDS011;33475;46.614;13.888;2024-02-15T03:10:03;5.30;;;3.97;;
47713;SDS011;33475;46.614;13.888;2024-02-15T03:12:33;9.68;;;5.68;;
47713;SDS011;33475;46.614;13.888;2024-02-15T03:15:01;16.95;;;8.27;;
47713;SDS011;33475;46.614;13.888;2024-02-15T03:17:27;12.40;;;6.47;;
47713;SDS011;33475;46.614;13.888;2024-02-15T03:19:59;13.05;;;4.68;;
47713;SDS011;33475;46.614;13.888;2024-02-15T03:22:25;12.25;;;3.55;;
47713;SDS011;33475;46.614;13.888;2024-02-15T03:24:52;4.90;;;3.08;;
47713;SDS011;33475;46.614;13.888;2024-02-15T03:27:19;8.93;;;3.20;;
47713;SDS011;33475;46.614;13.888;2024-02-15T03:29:48;5.38;;;3.15;;
47713;SDS011;33475;46.614;13.888;2024-02-15T03:32:15;4.10;;;2.97;;
47713;SDS011;33475;46.614;13.888;2024-02-15T03:34:41;9.32;;;4.07;;
47713;SDS011;33475;46.614;13.888;2024-02-15T03:37:08;5.63;;;3.65;;
47713;SDS011;33475;46.614;13.888;2024-02-15T03:39:35;5.72;;;3.65;;
47713;SDS011;33475;46.614;13.888;2024-02-15T03:42:02;7.30;;;2.97;;
47713;SDS011;33475;46.614;13.888;2024-02-15T03:44:29;5.25;;;3.25;;
47713;SDS011;33475;46.614;13.888;2024-02-15T03:46:56;4.70;;;3.30;;
47713;SDS011;33475;46.614;13.888;2024-02-15T03:49:24;5.65;;;2.95;;
47713;SDS011;33475;46.614;13.888;2024-02-15T03:51:50;5.95;;;3.42;;
47713;SDS011;33475;46.614;13.888;2024-02-15T03:54:16;4.00;;;3.03;;
47713;SDS011;33475;46.614;13.888;2024-02-15T03:56:46;6.30;;;2.70;;
47713;SDS011;33475;46.614;13.888;2024-02-15T03:59:13;5.30;;;3.15;;
47713;SDS011;33475;46.614;13.888;2024-02-15T04:01:39;8.50;;;3.35;;
47713;SDS011;33475;46.614;13.888;2024-02-15T04:04:05;8.73;;;3.90;;
47713;SDS011;33475;46.614;13.888;2024-02-15T04:06:31;7.40;;;3.83;;
47713;SDS011;33475;46.614;13.888;2024-02-15T04:08:59;7.75;;;4.70;;
47713;SDS011;33475;46.614;13.888;2024-02-15T04:11:25;9.13;;;5.45;;
47713;SDS011;33475;46.614;13.888;2024-02-15T04:13:51;10.38;;;4.25;;
47713;SDS011;33475;46.614;13.888;2024-02-15T04:16:18;11.05;;;5.50;;
47713;SDS011;33475;46.614;13.888;2024-02-15T04:18:44;7.80;;;4.15;;
47713;SDS011;33475;46.614;13.888;2024-02-15T04:21:10;7.53;;;3.30;;
47713;SDS011;33475;46.614;13.888;2024-02-15T04:23:37;8.52;;;3.13;;
47713;SDS011;33475;46.614;13.888;2024-02-15T04:26:04;7.78;;;3.70;;
47713;SDS011;33475;46.614;13.888;2024-02-15T04:28:30;4.47;;;3.08;;
47713;SDS011;33475;46.614;13.888;2024-02-15T04:30:58;4.90;;;3.05;;
47713;SDS011;33475;46.614;13.888;2024-02-15T04:33:25;4.13;;;2.60;;
47713;SDS011;33475;46.614;13.888;2024-02-15T04:35:51;4.13;;;3.22;;
47713;SDS011;33475;46.614;13.888;2024-02-15T04:38:17;4.00;;;2.30;;
47713;SDS011;33475;46.614;13.888;2024-02-15T04:40:44;2.97;;;2.47;;
47713;SDS011;33475;46.614;13.888;2024-02-15T04:43:10;5.50;;;2.55;;
47713;SDS011;33475;46.614;13.888;2024-02-15T04:45:36;6.35;;;3.42;;
47713;SDS011;33475;46.614;13.888;2024-02-15T04:48:03;3.78;;;3.20;;
47713;SDS011;33475;46.614;13.888;2024-02-15T04:50:29;5.03;;;3.15;;
47713;SDS011;33475;46.614;13.888;2024-02-15T04:52:55;11.48;;;3.78;;
47713;SDS011;33475;46.614;13.888;2024-02-15T04:55:22;5.53;;;3.42;;
47713;SDS011;33475;46.614;13.888;2024-02-15T04:57:49;4.63;;;3.33;;
47713;SDS011;33475;46.614;13.888;2024-02-15T05:00:19;7.90;;;3.22;;
47713;SDS011;33475;46.614;13.888;2024-02-15T05:02:46;7.55;;;3.75;;
47713;SDS011;33475;46.614;13.888;2024-02-15T05:05:12;5.55;;;4.10;;
47713;SDS011;33475;46.614;13.888;2024-02-15T05:07:38;8.52;;;3.75;;
47713;SDS011;33475;46.614;13.888;2024-02-15T05:10:05;5.10;;;3.28;;
47713;SDS011;33475;46.614;13.888;2024-02-15T05:12:32;4.60;;;3.22;;
47713;SDS011;33475;46.614;13.888;2024-02-15T05:14:59;6.55;;;4.30;;
47713;SDS011;33475;46.614;13.888;2024-02-15T05:17:25;8.48;;;5.47;;
47713;SDS011;33475;46.614;13.888;2024-02-15T05:19:54;7.82;;;5.45;;
47713;SDS011;33475;46.614;13.888;2024-02-15T05:22:25;10.45;;;6.60;;
47713;SDS011;33475;46.614;13.888;2024-02-15T05:24:54;15.20;;;6.65;;
47713;SDS011;33475;46.614;13.888;2024-02-15T05:27:21;12.35;;;5.88;;
47713;SDS011;33475;46.614;13.888;2024-02-15T05:29:48;10.23;;;7.85;;
47713;SDS011;33475;46.614;13.888;2024-02-15T05:32:18;8.13;;;4.68;;
47713;SDS011;33475;46.614;13.888;2024-02-15T05:34:45;6.30;;;4.95;;
47713;SDS011;33475;46.614;13.888;2024-02-15T05:37:13;7.43;;;4.25;;
47713;SDS011;33475;46.614;13.888;2024-02-15T05:39:41;6.25;;;4.45;;
47713;SDS011;33475;46.614;13.888;2024-02-15T05:42:07;5.75;;;3.70;;
47713;SDS011;33475;46.614;13.888;2024-02-15T05:44:35;10.00;;;3.50;;
47713;SDS011;33475;46.614;13.888;2024-02-15T05:47:01;5.40;;;3.78;;
47713;SDS011;33475;46.614;13.888;2024-02-15T05:49:27;7.32;;;4.25;;
47713;SDS011;33475;46.614;13.888;2024-02-15T05:51:54;25.50;;;4.60;;
47713;SDS011;33475;46.614;13.888;2024-02-15T05:54:20;13.32;;;4.68;;
47713;SDS011;33475;46.614;13.888;2024-02-15T05:56:50;10.90;;;5.68;;
47713;SDS011;33475;46.614;13.888;2024-02-15T05:59:19;22.52;;;8.68;;
47713;SDS011;33475;46.614;13.888;2024-02-15T06:01:45;15.57;;;8.18;;
47713;SDS011;33475;46.614;13.888;2024-02-15T06:04:16;16.25;;;9.43;;
47713;SDS011;33475;46.614;13.888;2024-02-15T06:06:43;32.90;;;14.70;;
47713;SDS011;33475;46.614;13.888;2024-02-15T06:09:13;30.75;;;13.35;;
47713;SDS011;33475;46.614;13.888;2024-02-15T06:11:39;30.83;;;12.95;;
47713;SDS011;33475;46.614;13.888;2024-02-15T06:14:06;30.73;;;13.20;;
47713;SDS011;33475;46.614;13.888;2024-02-15T06:16:32;21.20;;;10.07;;
47713;SDS011;33475;46.614;13.888;2024-02-15T06:18:58;20.33;;;10.05;;
47713;SDS011;33475;46.614;13.888;2024-02-15T06:21:24;24.10;;;11.88;;
47713;SDS011;33475;46.614;13.888;2024-02-15T06:23:51;28.92;;;9.88;;
47713;SDS011;33475;46.614;13.888;2024-02-15T06:26:18;18.98;;;9.40;;
47713;SDS011;33475;46.614;13.888;2024-02-15T06:28:46;23.40;;;11.10;;
47713;SDS011;33475;46.614;13.888;2024-02-15T06:31:31;25.23;;;13.00;;
47713;SDS011;33475;46.614;13.888;2024-02-15T06:34:16;18.88;;;10.52;;
47713;SDS011;33475;46.614;13.888;2024-02-15T06:37:00;30.80;;;14.40;;
47713;SDS011;33475;46.614;13.888;2024-02-15T06:39:45;13.10;;;7.75;;
47713;SDS011;33475;46.614;13.888;2024-02-15T06:42:12;12.60;;;6.15;;
47713;SDS011;33475;46.614;13.888;2024-02-15T06:44:47;18.83;;;8.77;;
47713;SDS011;33475;46.614;13.888;2024-02-15T06:47:14;12.10;;;7.18;;
47713;SDS011;33475;46.614;13.888;2024-02-15T06:49:43;14.32;;;6.55;;
47713;SDS011;33475;46.614;13.888;2024-02-15T06:52:09;6.38;;;5.22;;
47713;SDS011;33475;46.614;13.888;2024-02-15T06:54:37;10.48;;;5.68;;
47713;SDS011;33475;46.614;13.888;2024-02-15T06:57:03;9.00;;;4.57;;
47713;SDS011;33475;46.614;13.888;2024-02-15T06:59:30;16.38;;;11.60;;
47713;SDS011;33475;46.614;13.888;2024-02-15T07:02:00;52.78;;;30.38;;
47713;SDS011;33475;46.614;13.888;2024-02-15T07:04:27;33.63;;;20.83;;
47713;SDS011;33475;46.614;13.888;2024-02-15T07:06:54;15.50;;;12.50;;
47713;SDS011;33475;46.614;13.888;2024-02-15T07:09:20;6.03;;;4.95;;
47713;SDS011;33475;46.614;13.888;2024-02-15T07:11:49;6.53;;;4.40;;
47713;SDS011;33475;46.614;13.888;2024-02-15T07:14:15;12.73;;;4.20;;
47713;SDS011;33475;46.614;13.888;2024-02-15T07:16:48;6.78;;;4.47;;
47713;SDS011;33475;46.614;13.888;2024-02-15T07:19:14;5.70;;;3.55;;
47713;SDS011;33475;46.614;13.888;2024-02-15T07:21:41;5.68;;;3.40;;
47713;SDS011;33475;46.614;13.888;2024-02-15T07:24:09;7.55;;;4.82;;
47713;SDS011;33475;46.614;13.888;2024-02-15T07:26:35;5.93;;;3.10;;
47713;SDS011;33475;46.614;13.888;2024-02-15T07:29:02;4.60;;;3.35;;
47713;SDS011;33475;46.614;13.888;2024-02-15T07:31:33;8.65;;;3.72;;
47713;SDS011;33475;46.614;13.888;2024-02-15T07:34:00;14.65;;;5.22;;
47713;SDS011;33475;46.614;13.888;2024-02-15T07:36:26;4.20;;;3.35;;
47713;SDS011;33475;46.614;13.888;2024-02-15T07:38:53;8.10;;;3.55;;
47713;SDS011;33475;46.614;13.888;2024-02-15T07:41:21;6.65;;;3.78;;
47713;SDS011;33475;46.614;13.888;2024-02-15T07:43:48;7.40;;;3.25;;
47713;SDS011;33475;46.614;13.888;2024-02-15T07:46:15;10.75;;;3.40;;
47713;SDS011;33475;46.614;13.888;2024-02-15T07:48:42;4.85;;;3.17;;
47713;SDS011;33475;46.614;13.888;2024-02-15T07:51:15;9.00;;;2.95;;
47713;SDS011;33475;46.614;13.888;2024-02-15T07:53:43;8.93;;;3.30;;
47713;SDS011;33475;46.614;13.888;2024-02-15T07:56:09;5.15;;;3.00;;
47713;SDS011;33475;46.614;13.888;2024-02-15T07:58:39;5.47;;;3.45;;
47713;SDS011;33475;46.614;13.888;2024-02-15T08:01:06;14.48;;;5.05;;
47713;SDS011;33475;46.614;13.888;2024-02-15T08:03:34;6.97;;;5.07;;
47713;SDS011;33475;46.614;13.888;2024-02-15T08:06:01;8.05;;;4.15;;
47713;SDS011;33475;46.614;13.888;2024-02-15T08:08:32;5.80;;;3.60;;
47713;SDS011;33475;46.614;13.888;2024-02-15T08:10:59;13.38;;;4.03;;
47713;SDS011;33475;46.614;13.888;2024-02-15T08:13:27;6.57;;;3.50;;
47713;SDS011;33475;46.614;13.888;2024-02-15T08:15:54;8.35;;;3.22;;
47713;SDS011;33475;46.614;13.888;2024-02-15T08:18:21;5.97;;;2.97;;
47713;SDS011;33475;46.614;13.888;2024-02-15T08:20:47;6.00;;;2.60;;
47713;SDS011;33475;46.614;13.888;2024-02-15T08:23:13;4.43;;;3.00;;
47713;SDS011;33475;46.614;13.888;2024-02-15T08:25:39;6.15;;;3.70;;
47713;SDS011;33475;46.614;13.888;2024-02-15T08:28:06;6.45;;;3.25;;
47713;SDS011;33475;46.614;13.888;2024-02-15T08:30:33;8.52;;;3.28;;
47713;SDS011;33475;46.614;13.888;2024-02-15T08:32:59;18.63;;;4.35;;
47713;SDS011;33475;46.614;13.888;2024-02-15T08:35:25;17.38;;;4.43;;
47713;SDS011;33475;46.614;13.888;2024-02-15T08:37:51;13.00;;;6.53;;
47713;SDS011;33475;46.614;13.888;2024-02-15T08:40:18;27.80;;;4.47;;
47713;SDS011;33475;46.614;13.888;2024-02-15T08:42:49;15.30;;;4.15;;
47713;SDS011;33475;46.614;13.888;2024-02-15T08:45:16;8.75;;;3.72;;
47713;SDS011;33475;46.614;13.888;2024-02-15T08:47:42;11.38;;;3.58;;
47713;SDS011;33475;46.614;13.888;2024-02-15T08:50:11;8.38;;;4.22;;
47713;SDS011;33475;46.614;13.888;2024-02-15T08:52:37;9.40;;;4.45;;
47713;SDS011;33475;46.614;13.888;2024-02-15T08:55:07;9.88;;;4.50;;
47713;SDS011;33475;46.614;13.888;2024-02-15T08:57:39;16.15;;;5.15;;
47713;SDS011;33475;46.614;13.888;2024-02-15T09:00:06;19.13;;;6.93;;
47713;SDS011;33475;46.614;13.888;2024-02-15T09:02:41;19.58;;;7.72;;
47713;SDS011;33475;46.614;13.888;2024-02-15T09:05:07;10.63;;;5.68;;
47713;SDS011;33475;46.614;13.888;2024-02-15T09:07:34;14.43;;;4.50;;
47713;SDS011;33475;46.614;13.888;2024-02-15T09:10:01;20.15;;;7.75;;
47713;SDS011;33475;46.614;13.888;2024-02-15T09:12:28;11.63;;;4.93;;
47713;SDS011;33475;46.614;13.888;2024-02-15T09:14:56;10.43;;;5.03;;
47713;SDS011;33475;46.614;13.888;2024-02-15T09:17:22;10.40;;;6.60;;
47713;SDS011;33475;46.614;13.888;2024-02-15T09:19:49;17.55;;;8.52;;
47713;SDS011;33475;46.614;13.888;2024-02-15T09:22:15;12.57;;;5.38;;
47713;SDS011;33475;46.614;13.888;2024-02-15T09:24:41;11.48;;;5.03;;
47713;SDS011;33475;46.614;13.888;2024-02-15T09:27:08;17.63;;;4.78;;
47713;SDS011;33475;46.614;13.888;2024-02-15T09:29:37;14.55;;;6.45;;
47713;SDS011;33475;46.614;13.888;2024-02-15T09:32:05;13.45;;;6.40;;
47713;SDS011;33475;46.614;13.888;2024-02-15T09:34:31;21.48;;;6.47;;
47713;SDS011;33475;46.614;13.888;2024-02-15T09:36:58;6.88;;;5.25;;
47713;SDS011;33475;46.614;13.888;2024-02-15T09:39:24;10.38;;;5.15;;
47713;SDS011;33475;46.614;13.888;2024-02-15T09:41:50;11.63;;;4.32;;
47713;SDS011;33475;46.614;13.888;2024-02-15T09:44:23;7.13;;;5.20;;
47713;SDS011;33475;46.614;13.888;2024-02-15T09:47:02;10.27;;;4.18;;
47713;SDS011;33475;46.614;13.888;2024-02-15T09:49:36;8.52;;;4.75;;
47713;SDS011;33475;46.614;13.888;2024-02-15T09:52:06;10.38;;;4.55;;
47713;SDS011;33475;46.614;13.888;2024-02-15T09:54:38;4.30;;;3.25;;
47713;SDS011;33475;46.614;13.888;2024-02-15T09:57:06;11.45;;;3.17;;
47713;SDS011;33475;46.614;13.888;2024-02-15T09:59:33;6.22;;;3.22;;
47713;SDS011;33475;46.614;13.888;2024-02-15T10:02:01;7.75;;;3.10;;
47713;SDS011;33475;46.614;13.888;2024-02-15T10:04:28;12.32;;;3.90;;
47713;SDS011;33475;46.614;13.888;2024-02-15T10:06:55;7.22;;;2.92;;
47713;SDS011;33475;46.614;13.888;2024-02-15T10:09:27;6.00;;;3.00;;
47713;SDS011;33475;46.614;13.888;2024-02-15T10:11:58;8.75;;;2.60;;
47713;SDS011;33475;46.614;13.888;2024-02-15T10:14:24;10.05;;;3.88;;
47713;SDS011;33475;46.614;13.888;2024-02-15T10:16:51;9.43;;;3.65;;
47713;SDS011;33475;46.614;13.888;2024-02-15T10:19:19;7.65;;;3.78;;
47713;SDS011;33475;46.614;13.888;2024-02-15T10:21:54;7.38;;;3.10;;
47713;SDS011;33475;46.614;13.888;2024-02-15T10:24:21;9.35;;;3.50;;
47713;SDS011;33475;46.614;13.888;2024-02-15T10:26:51;4.75;;;2.75;;
47713;SDS011;33475;46.614;13.888;2024-02-15T10:29:18;6.75;;;2.80;;
47713;SDS011;33475;46.614;13.888;2024-02-15T10:31:54;6.85;;;2.65;;
47713;SDS011;33475;46.614;13.888;2024-02-15T10:34:21;6.53;;;2.45;;
47713;SDS011;33475;46.614;13.888;2024-02-15T10:36:48;5.47;;;2.25;;
47713;SDS011;33475;46.614;13.888;2024-02-15T10:39:16;4.45;;;2.47;;
47713;SDS011;33475;46.614;13.888;2024-02-15T10:41:48;6.03;;;2.75;;
47713;SDS011;33475;46.614;13.888;2024-02-15T10:44:23;5.22;;;2.80;;
47713;SDS011;33475;46.614;13.888;2024-02-15T10:46:52;5.95;;;2.17;;
47713;SDS011;33475;46.614;13.888;2024-02-15T10:49:21;6.05;;;2.50;;
47713;SDS011;33475;46.614;13.888;2024-02-15T10:51:50;6.95;;;2.22;;
47713;SDS011;33475;46.614;13.888;2024-02-15T10:54:19;6.53;;;2.30;;
47713;SDS011;33475;46.614;13.888;2024-02-15T10:56:49;5.95;;;2.30;;
47713;SDS011;33475;46.614;13.888;2024-02-15T10:59:21;3.22;;;1.70;;
47713;SDS011;33475;46.614;13.888;2024-02-15T11:01:53;5.45;;;1.73;;
47713;SDS011;33475;46.614;13.888;2024-02-15T11:04:20;3.00;;;1.40;;
47713;SDS011;33475;46.614;13.888;2024-02-15T11:06:47;11.40;;;2.50;;
47713;SDS011;33475;46.614;13.888;2024-02-15T11:09:15;8.73;;;1.70;;
47713;SDS011;33475;46.614;13.888;2024-02-15T11:11:41;5.20;;;1.80;;
47713;SDS011;33475;46.614;13.888;2024-02-15T11:16:51;5.72;;;2.00;;
47713;SDS011;33475;46.614;13.888;2024-02-15T11:20:02;4.22;;;2.80;;
47713;SDS011;33475;46.614;13.888;2024-02-15T11:22:16;13.25;;;2.70;;
47713;SDS011;33475;46.614;13.888;2024-02-15T11:24:49;4.13;;;1.55;;
47713;SDS011;33475;46.614;13.888;2024-02-15T11:27:29;5.63;;;1.20;;
47713;SDS011;33475;46.614;13.888;2024-02-15T11:29:57;2.45;;;1.60;;
47713;SDS011;33475;46.614;13.888;2024-02-15T11:35:13;4.60;;;1.67;;
47713;SDS011;33475;46.614;13.888;2024-02-15T11:40:12;4.10;;;1.70;;
47713;SDS011;33475;46.614;13.888;2024-02-15T11:42:38;3.28;;;1.38;;
47713;SDS011;33475;46.614;13.888;2024-02-15T11:45:05;10.00;;;2.25;;
47713;SDS011;33475;46.614;13.888;2024-02-15T11:47:38;2.90;;;2.05;;
47713;SDS011;33475;46.614;13.888;2024-02-15T11:50:09;3.97;;;1.27;;
47713;SDS011;33475;46.614;13.888;2024-02-15T11:52:49;2.42;;;1.48;;
47713;SDS011;33475;46.614;13.888;2024-02-15T11:55:19;4.18;;;1.50;;
47713;SDS011;33475;46.614;13.888;2024-02-15T11:57:58;3.03;;;1.45;;
47713;SDS011;33475;46.614;13.888;2024-02-15T12:00:47;4.32;;;1.30;;
47713;SDS011;33475;46.614;13.888;2024-02-15T12:03:32;4.40;;;3.88;;
47713;SDS011;33475;46.614;13.888;2024-02-15T12:06:17;1.92;;;1.30;;
47713;SDS011;33475;46.614;13.888;2024-02-15T12:09:02;6.07;;;1.20;;
47713;SDS011;33475;46.614;13.888;2024-02-15T12:11:47;2.75;;;1.10;;
47713;SDS011;33475;46.614;13.888;2024-02-15T12:14:41;4.47;;;3.40;;
47713;SDS011;33475;46.614;13.888;2024-02-15T12:17:26;3.35;;;2.75;;
47713;SDS011;33475;46.614;13.888;2024-02-15T12:20:10;6.50;;;5.95;;
47713;SDS011;33475;46.614;13.888;2024-02-15T12:22:55;3.13;;;1.75;;
47713;SDS011;33475;46.614;13.888;2024-02-15T12:25:21;5.97;;;3.83;;
47713;SDS011;33475;46.614;13.888;2024-02-15T12:27:53;6.38;;;5.80;;
47713;SDS011;33475;46.614;13.888;2024-02-15T12:30:19;6.47;;;1.52;;
47713;SDS011;33475;46.614;13.888;2024-02-15T12:32:50;2.65;;;1.55;;
47713;SDS011;33475;46.614;13.888;2024-02-15T12:35:17;3.78;;;2.53;;
47713;SDS011;33475;46.614;13.888;2024-02-15T12:37:45;2.95;;;2.30;;
47713;SDS011;33475;46.614;13.888;2024-02-15T12:40:12;1.30;;;1.20;;
47713;SDS011;33475;46.614;13.888;2024-02-15T12:42:45;4.97;;;1.48;;
47713;SDS011;33475;46.614;13.888;2024-02-15T12:45:19;1.65;;;0.75;;
47713;SDS011;33475;46.614;13.888;2024-02-15T12:47:47;2.55;;;1.92;;
47713;SDS011;33475;46.614;13.888;2024-02-15T12:50:15;3.65;;;3.03;;
47713;SDS011;33475;46.614;13.888;2024-02-15T12:52:42;2.70;;;1.45;;
47713;SDS011;33475;46.614;13.888;2024-02-15T12:55:13;3.35;;;1.05;;
47713;SDS011;33475;46.614;13.888;2024-02-15T12:57:40;2.35;;;0.80;;
47713;SDS011;33475;46.614;13.888;2024-02-15T13:00:08;3.63;;;0.85;;
47713;SDS011;33475;46.614;13.888;2024-02-15T13:02:43;3.30;;;0.80;;
47713;SDS011;33475;46.614;13.888;2024-02-15T13:05:10;4.25;;;1.10;;
47713;SDS011;33475;46.614;13.888;2024-02-15T13:07:37;2.25;;;0.95;;
47713;SDS011;33475;46.614;13.888;2024-02-15T13:10:04;2.65;;;1.20;;
47713;SDS011;33475;46.614;13.888;2024-02-15T13:12:34;4.05;;;1.33;;
47713;SDS011;33475;46.614;13.888;2024-02-15T13:15:04;4.45;;;1.52;;
47713;SDS011;33475;46.614;13.888;2024-02-15T13:17:32;2.83;;;1.08;;
47713;SDS011;33475;46.614;13.888;2024-02-15T13:19:59;6.05;;;0.80;;
47713;SDS011;33475;46.614;13.888;2024-02-15T13:22:32;5.75;;;1.05;;
47713;SDS011;33475;46.614;13.888;2024-02-15T13:25:01;3.58;;;1.40;;
47713;SDS011;33475;46.614;13.888;2024-02-15T13:27:28;1.23;;;0.70;;
47713;SDS011;33475;46.614;13.888;2024-02-15T13:29:56;1.90;;;0.93;;
47713;SDS011;33475;46.614;13.888;2024-02-15T13:32:23;1.30;;;0.82;;
47713;SDS011;33475;46.614;13.888;2024-02-15T13:34:49;2.67;;;1.33;;
47713;SDS011;33475;46.614;13.888;2024-02-15T13:37:17;4.18;;;1.17;;
47713;SDS011;33475;46.614;13.888;2024-02-15T13:39:46;2.45;;;1.33;;
47713;SDS011;33475;46.614;13.888;2024-02-15T13:42:12;24.33;;;2.17;;
47713;SDS011;33475;46.614;13.888;2024-02-15T13:44:39;2.13;;;1.42;;
47713;SDS011;33475;46.614;13.888;2024-02-15T13:47:05;2.95;;;1.10;;
47713;SDS011;33475;46.614;13.888;2024-02-15T13:49:32;3.63;;;1.20;;
47713;SDS011;33475;46.614;13.888;2024-02-15T13:52:00;6.40;;;1.20;;
47713;SDS011;33475;46.614;13.888;2024-02-15T13:54:30;3.17;;;1.00;;
47713;SDS011;33475;46.614;13.888;2024-02-15T13:56:57;2.28;;;1.10;;
47713;SDS011;33475;46.614;13.888;2024-02-15T13:59:23;2.65;;;1.23;;
47713;SDS011;33475;46.614;13.888;2024-02-15T14:01:49;6.75;;;1.88;;
47713;SDS011;33475;46.614;13.888;2024-02-15T14:04:16;2.50;;;0.90;;
47713;SDS011;33475;46.614;13.888;2024-02-15T14:06:42;1.90;;;1.00;;
47713;SDS011;33475;46.614;13.888;2024-02-15T14:09:10;2.05;;;1.10;;
47713;SDS011;33475;46.614;13.888;2024-02-15T14:11:39;1.38;;;1.17;;
47713;SDS011;33475;46.614;13.888;2024-02-15T14:14:05;3.47;;;1.42;;
47713;SDS011;33475;46.614;13.888;2024-02-15T14:16:32;2.95;;;1.65;;
47713;SDS011;33475;46.614;13.888;2024-02-15T14:18:58;3.83;;;1.08;;
47713;SDS011;33475;46.614;13.888;2024-02-15T14:21:24;5.15;;;1.42;;
47713;SDS011;33475;46.614;13.888;2024-02-15T14:23:51;1.13;;;0.90;;
47713;SDS011;33475;46.614;13.888;2024-02-15T14:26:17;1.90;;;1.00;;
47713;SDS011;33475;46.614;13.888;2024-02-15T14:28:43;1.73;;;0.95;;
47713;SDS011;33475;46.614;13.888;2024-02-15T14:31:10;1.77;;;1.38;;
47713;SDS011;33475;46.614;13.888;2024-02-15T14:33:55;2.15;;;1.58;;
47713;SDS011;33475;46.614;13.888;2024-02-15T14:36:21;1.85;;;1.08;;
47713;SDS011;33475;46.614;13.888;2024-02-15T14:38:48;2.60;;;1.00;;
47713;SDS011;33475;46.614;13.888;2024-02-15T14:41:14;2.42;;;1.63;;
47713;SDS011;33475;46.614;13.888;2024-02-15T14:43:41;6.53;;;4.32;;
47713;SDS011;33475;46.614;13.888;2024-02-15T14:46:08;4.20;;;1.65;;